VXP239 KJQF-KLAL
Flight info
| Callsign | VXP239 |
|---|---|
| Flight time | 1h 10m |
| Altitude | 40000 |
| Route | BEAVY6 JENDO MAVRC TEUFL KYYUU LUBBR4 |
| Aircraft | B737/M-SDFGIRWZ/SB1 |
Departure
| Time | 2026-04-18 03:52 |
|---|---|
| Airport | Concord-Padgett Regional Airport (KJQF) |
Arrival
| Time | 2026-04-18 05:02 |
|---|---|
| Airport | Lakeland Linder International Airport (KLAL) |
| Time | Latitude | Longitude | Altitude | Speed | Heading |
|---|---|---|---|---|---|
| 2026-04-18 03:36 | 35.38045 | -80.71324 | 666 ft | 0 kts | 326° |
| 2026-04-18 03:42 | 35.38034 | -80.71315 | 666 ft | 4 kts | 325° |
| 2026-04-18 03:43 | 35.38012 | -80.71296 | 666 ft | 4 kts | 328° |
| 2026-04-18 03:43 | 35.37988 | -80.71283 | 663 ft | 4 kts | 359° |
| 2026-04-18 03:43 | 35.37981 | -80.71283 | 665 ft | 1 kts | 11° |
| 2026-04-18 03:46 | 35.37987 | -80.71281 | 663 ft | 3 kts | 11° |
| 2026-04-18 03:46 | 35.38026 | -80.71272 | 661 ft | 8 kts | 10° |
| 2026-04-18 03:46 | 35.38080 | -80.71256 | 666 ft | 8 kts | 35° |
| 2026-04-18 03:47 | 35.38108 | -80.71201 | 667 ft | 8 kts | 21° |
| 2026-04-18 03:47 | 35.38165 | -80.71189 | 670 ft | 9 kts | 10° |
| 2026-04-18 03:47 | 35.38247 | -80.71170 | 666 ft | 14 kts | 11° |
| 2026-04-18 03:47 | 35.38360 | -80.71145 | 666 ft | 18 kts | 10° |
| 2026-04-18 03:48 | 35.38489 | -80.71115 | 668 ft | 19 kts | 11° |
| 2026-04-18 03:48 | 35.38615 | -80.71087 | 667 ft | 18 kts | 10° |
| 2026-04-18 03:48 | 35.38737 | -80.71059 | 666 ft | 18 kts | 10° |
| 2026-04-18 03:48 | 35.38856 | -80.71033 | 667 ft | 17 kts | 11° |
| 2026-04-18 03:49 | 35.38969 | -80.71007 | 668 ft | 16 kts | 10° |
| 2026-04-18 03:49 | 35.39079 | -80.70982 | 668 ft | 16 kts | 11° |
| 2026-04-18 03:49 | 35.39184 | -80.70959 | 669 ft | 15 kts | 10° |
| 2026-04-18 03:49 | 35.39294 | -80.70936 | 668 ft | 17 kts | 9° |
| 2026-04-18 03:50 | 35.39422 | -80.70906 | 667 ft | 19 kts | 11° |
| 2026-04-18 03:50 | 35.39551 | -80.70876 | 669 ft | 19 kts | 10° |
| 2026-04-18 03:50 | 35.39676 | -80.70848 | 667 ft | 18 kts | 10° |
| 2026-04-18 03:50 | 35.39774 | -80.70823 | 666 ft | 7 kts | 26° |
| 2026-04-18 03:51 | 35.39782 | -80.70770 | 664 ft | 8 kts | 100° |
| 2026-04-18 03:51 | 35.39770 | -80.70703 | 663 ft | 6 kts | 114° |
| 2026-04-18 03:51 | 35.39723 | -80.70700 | 663 ft | 11 kts | 191° |
| 2026-04-18 03:51 | 35.39421 | -80.70768 | 665 ft | 81 kts | 190° |
| 2026-04-18 03:52 | 35.38651 | -80.70941 | 668 ft | 142 kts | 190° |
| 2026-04-18 03:52 | 35.37587 | -80.71182 | 1060 ft | 159 kts | 190° |
| 2026-04-18 03:52 | 35.36480 | -80.71163 | 1726 ft | 163 kts | 157° |
| 2026-04-18 03:52 | 35.35508 | -80.70353 | 2368 ft | 179 kts | 146° |
| 2026-04-18 03:53 | 35.34425 | -80.69355 | 2861 ft | 205 kts | 142° |
| 2026-04-18 03:53 | 35.33289 | -80.68241 | 3516 ft | 218 kts | 142° |
| 2026-04-18 03:53 | 35.32015 | -80.66990 | 3794 ft | 251 kts | 142° |
| 2026-04-18 03:53 | 35.30527 | -80.65700 | 4363 ft | 269 kts | 156° |
| 2026-04-18 03:54 | 35.28705 | -80.65093 | 5263 ft | 274 kts | 170° |
| 2026-04-18 03:54 | 35.26812 | -80.64702 | 6188 ft | 278 kts | 172° |
| 2026-04-18 03:54 | 35.24874 | -80.64370 | 7094 ft | 284 kts | 180° |
| 2026-04-18 03:54 | 35.22983 | -80.64997 | 8048 ft | 286 kts | 214° |
| 2026-04-18 03:55 | 35.21932 | -80.65961 | 8757 ft | 288 kts | 220° |
| 2026-04-18 03:55 | 35.19854 | -80.68071 | 10021 ft | 298 kts | 221° |
| 2026-04-18 03:55 | 35.18228 | -80.69737 | 10644 ft | 317 kts | 221° |
| 2026-04-18 03:55 | 35.16468 | -80.71510 | 11245 ft | 333 kts | 220° |
| 2026-04-18 03:56 | 35.14658 | -80.73303 | 12201 ft | 336 kts | 220° |
| 2026-04-18 03:56 | 35.13425 | -80.74511 | 12931 ft | 337 kts | 219° |
| 2026-04-18 03:56 | 35.11605 | -80.76278 | 13912 ft | 340 kts | 219° |
| 2026-04-18 03:56 | 35.09733 | -80.78084 | 14759 ft | 345 kts | 219° |
| 2026-04-18 03:57 | 35.05896 | -80.81767 | 16513 ft | 356 kts | 220° |
| 2026-04-18 03:57 | 35.03931 | -80.83646 | 17385 ft | 361 kts | 220° |
| 2026-04-18 03:57 | 35.01941 | -80.85548 | 18243 ft | 366 kts | 220° |
| 2026-04-18 03:58 | 34.99918 | -80.87478 | 19001 ft | 372 kts | 221° |
| 2026-04-18 03:58 | 34.97872 | -80.89432 | 19773 ft | 376 kts | 221° |
| 2026-04-18 03:58 | 34.95795 | -80.91412 | 20559 ft | 380 kts | 221° |
| 2026-04-18 03:58 | 34.93698 | -80.93410 | 21325 ft | 385 kts | 222° |
| 2026-04-18 03:59 | 34.91576 | -80.95431 | 22059 ft | 389 kts | 222° |
| 2026-04-18 03:59 | 34.89432 | -80.97472 | 22794 ft | 394 kts | 223° |
| 2026-04-18 03:59 | 34.87285 | -80.99514 | 23507 ft | 398 kts | 223° |
| 2026-04-18 03:59 | 34.85087 | -81.01603 | 24121 ft | 402 kts | 223° |
| 2026-04-18 04:00 | 34.82872 | -81.03706 | 24753 ft | 405 kts | 223° |
| 2026-04-18 04:00 | 34.80474 | -81.05568 | 25352 ft | 418 kts | 209° |
| 2026-04-18 04:00 | 34.77614 | -81.06510 | 25966 ft | 431 kts | 194° |
| 2026-04-18 04:00 | 34.74625 | -81.07049 | 26575 ft | 436 kts | 193° |
| 2026-04-18 04:01 | 34.71599 | -81.07541 | 27089 ft | 441 kts | 193° |
| 2026-04-18 04:01 | 34.68542 | -81.08045 | 27602 ft | 446 kts | 193° |
| 2026-04-18 04:01 | 34.65451 | -81.08579 | 28134 ft | 449 kts | 194° |
| 2026-04-18 04:01 | 34.62382 | -81.09132 | 28664 ft | 453 kts | 194° |
| 2026-04-18 04:02 | 34.59248 | -81.09707 | 29171 ft | 457 kts | 195° |
| 2026-04-18 04:02 | 34.56092 | -81.10291 | 29666 ft | 461 kts | 195° |
| 2026-04-18 04:02 | 34.52923 | -81.10941 | 30153 ft | 464 kts | 197° |
| 2026-04-18 04:02 | 34.49738 | -81.11638 | 30575 ft | 466 kts | 197° |
| 2026-04-18 04:03 | 34.46537 | -81.12346 | 31019 ft | 469 kts | 197° |
| 2026-04-18 04:03 | 34.43324 | -81.13048 | 31455 ft | 471 kts | 197° |
| 2026-04-18 04:03 | 34.40082 | -81.13745 | 31801 ft | 475 kts | 197° |
| 2026-04-18 04:03 | 34.36792 | -81.14457 | 31995 ft | 481 kts | 198° |
| 2026-04-18 04:04 | 34.33524 | -81.15308 | 32499 ft | 477 kts | 200° |
| 2026-04-18 04:04 | 34.30314 | -81.16271 | 33018 ft | 474 kts | 202° |
| 2026-04-18 04:04 | 34.27140 | -81.17273 | 33607 ft | 470 kts | 202° |
| 2026-04-18 04:04 | 34.23980 | -81.18273 | 34156 ft | 467 kts | 202° |
| 2026-04-18 04:05 | 34.20882 | -81.19243 | 34561 ft | 466 kts | 202° |
| 2026-04-18 04:05 | 34.17699 | -81.20224 | 34902 ft | 466 kts | 202° |
| 2026-04-18 04:05 | 34.14588 | -81.21170 | 35279 ft | 466 kts | 202° |
| 2026-04-18 04:05 | 34.11476 | -81.22107 | 35698 ft | 464 kts | 202° |
| 2026-04-18 04:06 | 34.08317 | -81.23054 | 36099 ft | 462 kts | 202° |
| 2026-04-18 04:06 | 34.05200 | -81.23989 | 36445 ft | 462 kts | 202° |
| 2026-04-18 04:06 | 34.02075 | -81.24926 | 36797 ft | 461 kts | 202° |
| 2026-04-18 04:06 | 33.98962 | -81.25859 | 37171 ft | 460 kts | 202° |
| 2026-04-18 04:07 | 33.95863 | -81.26788 | 37527 ft | 459 kts | 202° |
| 2026-04-18 04:07 | 33.92761 | -81.27718 | 37840 ft | 459 kts | 202° |
| 2026-04-18 04:07 | 33.89657 | -81.28648 | 38177 ft | 458 kts | 202° |
| 2026-04-18 04:07 | 33.86569 | -81.29571 | 38542 ft | 457 kts | 202° |
| 2026-04-18 04:08 | 33.83530 | -81.30488 | 38830 ft | 455 kts | 204° |
| 2026-04-18 04:08 | 33.80515 | -81.31601 | 39046 ft | 451 kts | 207° |
| 2026-04-18 04:08 | 33.77531 | -81.32884 | 39300 ft | 449 kts | 209° |
| 2026-04-18 04:08 | 33.74618 | -81.34207 | 39567 ft | 447 kts | 210° |
| 2026-04-18 04:09 | 33.71753 | -81.35519 | 39806 ft | 447 kts | 210° |
| 2026-04-18 04:09 | 33.68842 | -81.36839 | 40003 ft | 448 kts | 209° |
| 2026-04-18 04:09 | 33.65904 | -81.38152 | 39983 ft | 450 kts | 209° |
| 2026-04-18 04:10 | 33.60030 | -81.40724 | 40013 ft | 448 kts | 208° |
| 2026-04-18 04:10 | 33.54184 | -81.43250 | 40021 ft | 445 kts | 208° |
| 2026-04-18 04:11 | 33.48368 | -81.45758 | 40013 ft | 443 kts | 208° |
| 2026-04-18 04:11 | 33.42582 | -81.48253 | 40026 ft | 441 kts | 208° |
| 2026-04-18 04:12 | 33.36842 | -81.50727 | 40033 ft | 441 kts | 208° |
| 2026-04-18 04:12 | 33.31060 | -81.53216 | 40031 ft | 441 kts | 208° |
| 2026-04-18 04:13 | 33.25275 | -81.55703 | 40029 ft | 442 kts | 208° |
| 2026-04-18 04:13 | 33.19474 | -81.58193 | 40028 ft | 443 kts | 208° |
| 2026-04-18 04:14 | 33.13659 | -81.60685 | 40018 ft | 445 kts | 208° |
| 2026-04-18 04:14 | 33.07813 | -81.63186 | 40015 ft | 446 kts | 208° |
| 2026-04-18 04:15 | 33.01952 | -81.65689 | 40013 ft | 448 kts | 208° |
| 2026-04-18 04:15 | 32.96082 | -81.68193 | 40014 ft | 448 kts | 208° |
| 2026-04-18 04:16 | 32.90202 | -81.70697 | 40019 ft | 448 kts | 208° |
| 2026-04-18 04:16 | 32.84362 | -81.73181 | 40026 ft | 448 kts | 208° |
| 2026-04-18 04:17 | 32.78493 | -81.75674 | 40028 ft | 447 kts | 208° |
| 2026-04-18 04:17 | 32.72539 | -81.77905 | 40024 ft | 456 kts | 198° |
| 2026-04-18 04:18 | 32.66125 | -81.78588 | 40035 ft | 464 kts | 192° |
| 2026-04-18 04:18 | 32.59684 | -81.79062 | 40017 ft | 463 kts | 192° |
| 2026-04-18 04:19 | 32.53253 | -81.79570 | 40009 ft | 462 kts | 192° |
| 2026-04-18 04:19 | 32.46875 | -81.80110 | 40019 ft | 462 kts | 192° |
| 2026-04-18 04:20 | 32.40473 | -81.80666 | 40022 ft | 461 kts | 192° |
| 2026-04-18 04:20 | 32.34066 | -81.81224 | 40018 ft | 461 kts | 192° |
| 2026-04-18 04:21 | 32.27661 | -81.81779 | 40033 ft | 461 kts | 192° |
| 2026-04-18 04:21 | 32.21301 | -81.82328 | 40038 ft | 461 kts | 192° |
| 2026-04-18 04:22 | 32.14898 | -81.82881 | 40036 ft | 462 kts | 192° |
| 2026-04-18 04:22 | 32.08485 | -81.83433 | 40035 ft | 462 kts | 192° |
| 2026-04-18 04:23 | 32.02066 | -81.83984 | 40032 ft | 462 kts | 192° |
| 2026-04-18 04:23 | 31.95649 | -81.84535 | 40033 ft | 462 kts | 192° |
| 2026-04-18 04:24 | 31.89221 | -81.85086 | 40035 ft | 463 kts | 192° |
| 2026-04-18 04:24 | 31.82792 | -81.85636 | 40036 ft | 463 kts | 192° |
| 2026-04-18 04:25 | 31.76363 | -81.86186 | 40056 ft | 463 kts | 192° |
| 2026-04-18 04:25 | 31.69930 | -81.86735 | 40066 ft | 463 kts | 192° |
| 2026-04-18 04:26 | 31.63541 | -81.87279 | 40071 ft | 463 kts | 192° |
| 2026-04-18 04:26 | 31.57108 | -81.87827 | 40074 ft | 463 kts | 192° |
| 2026-04-18 04:27 | 31.50674 | -81.88374 | 40071 ft | 464 kts | 192° |
| 2026-04-18 04:27 | 31.44235 | -81.88920 | 40068 ft | 464 kts | 192° |
| 2026-04-18 04:28 | 31.37798 | -81.89466 | 40061 ft | 464 kts | 192° |
| 2026-04-18 04:28 | 31.31351 | -81.90011 | 40060 ft | 463 kts | 192° |
| 2026-04-18 04:29 | 31.24915 | -81.90555 | 40050 ft | 463 kts | 192° |
| 2026-04-18 04:29 | 31.18479 | -81.91099 | 40048 ft | 463 kts | 192° |
| 2026-04-18 04:30 | 31.12094 | -81.91637 | 40044 ft | 463 kts | 192° |
| 2026-04-18 04:30 | 31.05665 | -81.92178 | 40050 ft | 462 kts | 192° |
| 2026-04-18 04:31 | 30.99247 | -81.92718 | 40053 ft | 462 kts | 192° |
| 2026-04-18 04:31 | 30.92828 | -81.93257 | 40053 ft | 462 kts | 192° |
| 2026-04-18 04:32 | 30.86408 | -81.93795 | 40065 ft | 462 kts | 192° |
| 2026-04-18 04:32 | 30.80037 | -81.94329 | 40085 ft | 462 kts | 192° |
| 2026-04-18 04:33 | 30.73613 | -81.94866 | 40105 ft | 463 kts | 192° |
| 2026-04-18 04:33 | 30.67195 | -81.95402 | 40124 ft | 463 kts | 192° |
| 2026-04-18 04:34 | 30.60774 | -81.95938 | 40133 ft | 463 kts | 192° |
| 2026-04-18 04:34 | 30.54344 | -81.96473 | 40135 ft | 463 kts | 192° |
| 2026-04-18 04:35 | 30.47917 | -81.97008 | 40118 ft | 463 kts | 192° |
| 2026-04-18 04:35 | 30.41486 | -81.97542 | 40101 ft | 463 kts | 192° |
| 2026-04-18 04:36 | 30.35059 | -81.98075 | 40093 ft | 463 kts | 192° |
| 2026-04-18 04:36 | 30.28671 | -81.98605 | 40089 ft | 463 kts | 192° |
| 2026-04-18 04:37 | 30.22242 | -81.99137 | 40076 ft | 463 kts | 192° |
| 2026-04-18 04:37 | 30.15807 | -81.99668 | 40089 ft | 463 kts | 191° |
| 2026-04-18 04:38 | 30.09373 | -82.00200 | 40093 ft | 464 kts | 191° |
| 2026-04-18 04:38 | 30.02936 | -82.00730 | 40107 ft | 463 kts | 191° |
| 2026-04-18 04:39 | 29.96504 | -82.01259 | 40109 ft | 464 kts | 192° |
| 2026-04-18 04:39 | 29.90071 | -82.01788 | 40112 ft | 463 kts | 191° |
| 2026-04-18 04:40 | 29.83629 | -82.02317 | 40109 ft | 464 kts | 191° |
| 2026-04-18 04:40 | 29.80387 | -82.02586 | 39625 ft | 471 kts | 191° |
| 2026-04-18 04:40 | 29.77119 | -82.02856 | 39091 ft | 470 kts | 191° |
| 2026-04-18 04:40 | 29.73864 | -82.03121 | 38504 ft | 469 kts | 191° |
| 2026-04-18 04:41 | 29.70611 | -82.03386 | 37764 ft | 469 kts | 191° |
| 2026-04-18 04:41 | 29.67356 | -82.03651 | 37095 ft | 468 kts | 191° |
| 2026-04-18 04:41 | 29.64112 | -82.03914 | 36436 ft | 467 kts | 191° |
| 2026-04-18 04:41 | 29.60878 | -82.04178 | 35739 ft | 466 kts | 191° |
| 2026-04-18 04:42 | 29.57638 | -82.04443 | 34988 ft | 467 kts | 191° |
| 2026-04-18 04:42 | 29.54390 | -82.04709 | 34213 ft | 468 kts | 191° |
| 2026-04-18 04:42 | 29.51174 | -82.04973 | 33321 ft | 469 kts | 191° |
| 2026-04-18 04:42 | 29.47908 | -82.05240 | 32418 ft | 470 kts | 190° |
| 2026-04-18 04:43 | 29.44639 | -82.05507 | 31515 ft | 471 kts | 190° |
| 2026-04-18 04:43 | 29.41369 | -82.05773 | 30597 ft | 472 kts | 189° |
| 2026-04-18 04:43 | 29.39199 | -82.05949 | 30140 ft | 470 kts | 189° |
| 2026-04-18 04:43 | 29.34870 | -82.06297 | 29114 ft | 462 kts | 189° |
| 2026-04-18 04:44 | 29.32753 | -82.06467 | 28655 ft | 458 kts | 189° |
| 2026-04-18 04:44 | 29.29601 | -82.06720 | 27965 ft | 452 kts | 189° |
| 2026-04-18 04:44 | 29.26479 | -82.06972 | 27269 ft | 446 kts | 188° |
| 2026-04-18 04:44 | 29.23398 | -82.07222 | 26581 ft | 442 kts | 188° |
| 2026-04-18 04:45 | 29.20351 | -82.07470 | 25910 ft | 437 kts | 188° |
| 2026-04-18 04:45 | 29.17321 | -82.07717 | 25241 ft | 433 kts | 188° |
| 2026-04-18 04:45 | 29.14324 | -82.07960 | 24578 ft | 430 kts | 188° |
| 2026-04-18 04:45 | 29.11350 | -82.08202 | 23889 ft | 427 kts | 187° |
| 2026-04-18 04:46 | 29.08433 | -82.08439 | 23131 ft | 425 kts | 187° |
| 2026-04-18 04:46 | 29.05498 | -82.08676 | 22406 ft | 420 kts | 187° |
| 2026-04-18 04:46 | 29.02593 | -82.08911 | 21701 ft | 416 kts | 187° |
| 2026-04-18 04:46 | 28.99725 | -82.09142 | 21026 ft | 411 kts | 187° |
| 2026-04-18 04:47 | 28.96891 | -82.09370 | 20362 ft | 406 kts | 187° |
| 2026-04-18 04:47 | 28.94086 | -82.09596 | 19695 ft | 402 kts | 186° |
| 2026-04-18 04:47 | 28.91308 | -82.09821 | 19055 ft | 398 kts | 186° |
| 2026-04-18 04:47 | 28.88549 | -82.10044 | 18362 ft | 396 kts | 186° |
| 2026-04-18 04:48 | 28.85802 | -82.10266 | 17535 ft | 395 kts | 186° |
| 2026-04-18 04:48 | 28.83076 | -82.10485 | 16842 ft | 390 kts | 186° |
| 2026-04-18 04:48 | 28.80383 | -82.10702 | 16167 ft | 385 kts | 186° |
| 2026-04-18 04:48 | 28.77722 | -82.10916 | 15513 ft | 381 kts | 186° |
| 2026-04-18 04:49 | 28.75092 | -82.11127 | 14878 ft | 378 kts | 186° |
| 2026-04-18 04:49 | 28.72476 | -82.11338 | 14211 ft | 375 kts | 185° |
| 2026-04-18 04:49 | 28.69879 | -82.11547 | 13542 ft | 373 kts | 185° |
| 2026-04-18 04:49 | 28.67312 | -82.11696 | 13294 ft | 368 kts | 180° |
| 2026-04-18 04:50 | 28.64758 | -82.11463 | 13165 ft | 368 kts | 174° |
| 2026-04-18 04:50 | 28.62213 | -82.11046 | 13052 ft | 367 kts | 172° |
| 2026-04-18 04:50 | 28.59680 | -82.10605 | 13010 ft | 368 kts | 172° |
| 2026-04-18 04:50 | 28.57156 | -82.10189 | 13004 ft | 366 kts | 173° |
| 2026-04-18 04:51 | 28.54635 | -82.09806 | 12993 ft | 364 kts | 173° |
| 2026-04-18 04:51 | 28.52142 | -82.09445 | 12705 ft | 359 kts | 174° |
| 2026-04-18 04:51 | 28.49682 | -82.09095 | 12110 ft | 355 kts | 173° |
| 2026-04-18 04:51 | 28.47232 | -82.08666 | 11339 ft | 358 kts | 169° |
| 2026-04-18 04:52 | 28.44828 | -82.08072 | 10709 ft | 357 kts | 167° |
| 2026-04-18 04:52 | 28.42460 | -82.07431 | 10538 ft | 341 kts | 166° |
| 2026-04-18 04:52 | 28.40209 | -82.06821 | 10434 ft | 324 kts | 167° |
| 2026-04-18 04:52 | 28.38225 | -82.06293 | 10340 ft | 310 kts | 167° |
| 2026-04-18 04:53 | 28.36144 | -82.05748 | 10046 ft | 304 kts | 167° |
| 2026-04-18 04:53 | 28.34082 | -82.05214 | 9611 ft | 303 kts | 167° |
| 2026-04-18 04:53 | 28.32025 | -82.04686 | 9191 ft | 301 kts | 167° |
| 2026-04-18 04:53 | 28.29987 | -82.04164 | 8815 ft | 300 kts | 167° |
| 2026-04-18 04:54 | 28.27959 | -82.03651 | 8514 ft | 296 kts | 167° |
| 2026-04-18 04:54 | 28.25953 | -82.03139 | 8099 ft | 295 kts | 167° |
| 2026-04-18 04:54 | 28.23923 | -82.03002 | 7657 ft | 295 kts | 192° |
| 2026-04-18 04:54 | 28.22062 | -82.03897 | 7297 ft | 290 kts | 214° |
| 2026-04-18 04:55 | 28.20452 | -82.05216 | 6930 ft | 288 kts | 217° |
| 2026-04-18 04:55 | 28.18861 | -82.06592 | 6545 ft | 288 kts | 218° |
| 2026-04-18 04:55 | 28.17280 | -82.07970 | 6245 ft | 284 kts | 218° |
| 2026-04-18 04:56 | 28.14164 | -82.10654 | 5569 ft | 278 kts | 218° |
| 2026-04-18 04:56 | 28.12626 | -82.11968 | 5225 ft | 276 kts | 217° |
| 2026-04-18 04:56 | 28.11106 | -82.13264 | 4900 ft | 271 kts | 217° |
| 2026-04-18 04:56 | 28.09609 | -82.14537 | 4549 ft | 268 kts | 217° |
| 2026-04-18 04:57 | 28.08126 | -82.15796 | 4196 ft | 265 kts | 216° |
| 2026-04-18 04:57 | 28.06655 | -82.17043 | 3900 ft | 261 kts | 216° |
| 2026-04-18 04:57 | 28.05215 | -82.18264 | 3653 ft | 256 kts | 216° |
| 2026-04-18 04:57 | 28.03805 | -82.19458 | 3408 ft | 250 kts | 216° |
| 2026-04-18 04:58 | 28.02445 | -82.20609 | 3173 ft | 245 kts | 215° |
| 2026-04-18 04:58 | 28.00968 | -82.21372 | 3042 ft | 226 kts | 183° |
| 2026-04-18 04:58 | 27.99584 | -82.20964 | 2922 ft | 209 kts | 143° |
| 2026-04-18 04:58 | 27.98802 | -82.19641 | 2611 ft | 208 kts | 102° |
| 2026-04-18 04:59 | 27.98871 | -82.18034 | 2447 ft | 200 kts | 87° |
| 2026-04-18 04:59 | 27.98916 | -82.16499 | 2272 ft | 190 kts | 93° |
| 2026-04-18 04:59 | 27.98909 | -82.15051 | 2107 ft | 181 kts | 93° |
| 2026-04-18 04:59 | 27.98908 | -82.13659 | 1880 ft | 171 kts | 93° |
| 2026-04-18 05:00 | 27.98910 | -82.12363 | 1678 ft | 158 kts | 93° |
| 2026-04-18 05:00 | 27.98912 | -82.11191 | 1477 ft | 141 kts | 93° |
| 2026-04-18 05:00 | 27.98913 | -82.10135 | 1282 ft | 128 kts | 94° |
| 2026-04-18 05:00 | 27.98912 | -82.09128 | 1121 ft | 127 kts | 94° |
| 2026-04-18 05:01 | 27.98915 | -82.08148 | 984 ft | 128 kts | 93° |
| 2026-04-18 05:01 | 27.98915 | -82.07126 | 795 ft | 130 kts | 91° |
| 2026-04-18 05:01 | 27.98917 | -82.06103 | 642 ft | 130 kts | 90° |
| 2026-04-18 05:01 | 27.98922 | -82.05084 | 474 ft | 129 kts | 90° |
| 2026-04-18 05:02 | 27.98924 | -82.04060 | 300 ft | 130 kts | 89° |
| 2026-04-18 05:02 | 27.98928 | -82.03039 | 158 ft | 128 kts | 90° |
| 2026-04-18 05:02 | 27.98927 | -82.02150 | 147 ft | 87 kts | 90° |
| 2026-04-18 05:02 | 27.98929 | -82.01643 | 147 ft | 49 kts | 90° |
| 2026-04-18 05:03 | 27.98932 | -82.01407 | 148 ft | 17 kts | 77° |
| 2026-04-18 05:03 | 27.98999 | -82.01304 | 148 ft | 16 kts | 45° |
| 2026-04-18 05:03 | 27.99078 | -82.01216 | 148 ft | 16 kts | 44° |
| 2026-04-18 05:03 | 27.99153 | -82.01132 | 149 ft | 15 kts | 45° |
| 2026-04-18 05:04 | 27.99226 | -82.01050 | 149 ft | 14 kts | 45° |
| 2026-04-18 05:04 | 27.99291 | -82.00978 | 150 ft | 9 kts | 38° |
| 2026-04-18 05:04 | 27.99341 | -82.00987 | 149 ft | 9 kts | 320° |
| 2026-04-18 05:04 | 27.99371 | -82.01053 | 148 ft | 10 kts | 249° |
| 2026-04-18 05:05 | 27.99325 | -82.01110 | 148 ft | 10 kts | 227° |
| 2026-04-18 05:05 | 27.99282 | -82.01163 | 148 ft | 9 kts | 227° |
| 2026-04-18 05:05 | 27.99251 | -82.01211 | 148 ft | 7 kts | 262° |
| 2026-04-18 05:05 | 27.99273 | -82.01250 | 147 ft | 7 kts | 313° |
| 2026-04-18 05:06 | 27.99311 | -82.01295 | 147 ft | 9 kts | 313° |
| 2026-04-18 05:06 | 27.99351 | -82.01358 | 147 ft | 9 kts | 286° |
| 2026-04-18 05:06 | 27.99354 | -82.01411 | 147 ft | 6 kts | 271° |
| 2026-04-18 05:06 | 27.99362 | -82.01439 | 147 ft | 2 kts | 329° |
| 2026-04-18 05:07 | 27.99377 | -82.01439 | 147 ft | 2 kts | 0° |
| 2026-04-18 05:07 | 27.99385 | -82.01439 | 147 ft | 0 kts | 0° |